• Join FlightAware (Why Join?)
  • Login
  • US Flag 
12:50AM EDT


 

Airport Tracker/Info


-or-


 

Live Flight TrackerFlight Track Log ✈ CRL925 ✈ 29-Apr-2013 ✈ TFFF / FDF - LFPO / ORY

Flight Track Log - Related Links

Times and Time Zones

All times are in EDT time to prevent confusion due to time zone crossing. See the CRL925 flight status page for this flight to view local times or setup timezone preferences in your user account.

Time Position Orientation Groundspeed Altitude Reporting Facility
EDT Latitude Longitude Course Direction KTS MPH feet Rate Location/Type
08:09PM 14.6820 -60.8140 52° Northeast 265 305 5,700  Level FlightAware
08:09PM 14.6840 -60.8110 55° Northeast 267 307 5,800 960 Climbing FlightAware
08:10PM 14.7040 -60.7840 53° Northeast 273 314 6,700 2,040 Climbing FlightAware
08:10PM 14.7220 -60.7570 55° Northeast 273 314 7,700 2,160 Climbing FlightAware
08:11PM 14.7480 -60.7210 53° Northeast 282 325 8,700 2,040 Climbing FlightAware
08:11PM 14.7660 -60.6960 53° Northeast 290 334 9,400 1,620 Climbing FlightAware
08:12PM 14.8060 -60.6360 55° Northeast 312 359 10,600 1,020 Climbing FlightAware
08:13PM 14.8370 -60.6040 45° Northeast 338 389 11,000 720 Climbing FlightAware
08:13PM 14.9030 -60.5510 38° Northeast 375 432 11,700 1,560 Climbing FlightAware
08:14PM 14.9800 -60.4890 38° Northeast 375 432 13,600 1,920 Climbing FlightAware
08:15PM 15.0370 -60.4430 38° Northeast 379 436 14,800 1,980 Climbing FlightAware
08:16PM 15.0970 -60.3950 38° Northeast 379 436 16,300 1,800 Climbing FlightAware
08:16PM 15.1580 -60.3450 38° Northeast 383 441 17,400 1,380 Climbing FlightAware
08:17PM 15.2250 -60.2910 38° Northeast 392 451 18,400 960 Climbing FlightAware
08:18PM 15.2830 -60.2440 38° Northeast 414 476 18,800 600 Climbing FlightAware
08:18PM 15.3390 -60.1990 38° Northeast 430 495 19,200 840 Climbing FlightAware
08:19PM 15.4070 -60.1430 38° Northeast 440 506 20,000 1,080 Climbing FlightAware
08:20PM 15.4830 -60.0810 38° Northeast 450 518 20,800 1,020 Climbing FlightAware
08:21PM 15.5520 -60.0250 38° Northeast 458 527 21,500 840 Climbing FlightAware
08:21PM 15.6120 -59.9760 38° Northeast 467 537 22,000 1,680 Climbing FlightAware
08:22PM 15.6910 -59.9120 38° Northeast 447 514 23,800 1,500 Climbing FlightAware
08:23PM 15.7520 -59.8630 38° Northeast 458 527 24,200 480 Climbing FlightAware
08:23PM 15.8070 -59.8180 38° Northeast 472 543 24,400 360 Climbing FlightAware
08:24PM 15.8990 -59.7420 38° Northeast 490 564 24,700 480 Climbing FlightAware
08:25PM 15.9960 -59.6630 38° Northeast 501 577 25,300 840 Climbing FlightAware
08:26PM 16.0690 -59.6030 38° Northeast 506 582 26,100 1,020 Climbing FlightAware
08:26PM 16.1460 -59.5390 39° Northeast 514 592 26,800 960 Climbing FlightAware
08:27PM 16.2250 -59.4750 38° Northeast 522 601 27,500 960 Climbing FlightAware
08:28PM 16.2980 -59.4150 38° Northeast 526 605 28,200 900 Climbing FlightAware
08:28PM 16.3700 -59.3560 38° Northeast 531 611 28,800 1,020 Climbing FlightAware
08:29PM 16.4600 -59.2820 38° Northeast 533 613 29,600 1,020 Climbing FlightAware
08:30PM 16.5440 -59.2120 39° Northeast 538 619 30,300 1,020 Climbing FlightAware
08:31PM 16.6330 -59.1390 38° Northeast 537 618 31,200 960 Climbing FlightAware
08:31PM 16.6950 -59.0880 38° Northeast 535 616 31,700 1,020 Climbing FlightAware
08:32PM 16.7750 -59.0220 38° Northeast 533 613 32,600 1,200 Climbing FlightAware
08:33PM 16.9280 -58.8950 38° Northeast 523 602 34,200 960 Climbing FlightAware
08:34PM 17.0010 -58.8350 38° Northeast 523 602 34,700 420 Climbing FlightAware
08:35PM 17.0690 -58.7790 38° Northeast 524 603 34,900 120 Climbing FlightAware
08:35PM 17.1340 -58.7260 38° Northeast 524 603 34,900  Level FlightAware
08:36PM 17.1980 -58.6730 38° Northeast 524 603 34,900  Level FlightAware
08:37PM 17.2630 -58.6200 38° Northeast 524 603 34,900  Level FlightAware
08:38PM 17.3450 -58.5540 38° Northeast 524 603 34,900  Level FlightAware
08:38PM 17.4100 -58.5000 38° Northeast 524 603 34,900  Level FlightAware
08:39PM 17.4740 -58.4470 38° Northeast 524 603 34,900  Level FlightAware
08:40PM 17.5390 -58.3940 38° Northeast 524 603 34,900  Level FlightAware
08:40PM 17.6040 -58.3410 38° Northeast 524 603 34,900  Level FlightAware
08:41PM 17.6860 -58.2740 38° Northeast 524 603 34,900 960 Level FlightAware
08:41PM 17.9167 -58.0667 37° Northeast 538 619 36,000  Climbing New York Oceanic (ODAPS)
08:42PM 17.7510 -58.2210 38° Northeast 524 603 34,900  Descending FlightAware
08:42PM 18.0000 -58.0000 55° Northeast 559 643 36,000  Climbing New York Oceanic (ODAPS)
08:42PM 17.8150 -58.1680 38° Northeast 524 603 34,900 -1,140 Descending FlightAware
08:43PM 17.8800 -58.1140 38° Northeast 524 603 34,900  Level FlightAware
08:44PM 17.9450 -58.0610 38° Northeast 524 603 34,900 300 Level FlightAware
08:46PM 18.0972 -57.8543 55° Northeast  Level FlightAware Approximate
08:47PM 18.4448 -57.3302 55° Northeast 538 619 36,000  Level FlightAware Transoceanic
08:48PM 18.5335 -57.1958 55° Northeast 559 643 36,000  Level FlightAware Transoceanic
08:49PM 18.6221 -57.0613 55° Northeast 559 643 36,000  Level FlightAware Transoceanic
08:50PM 18.7106 -56.9267 55° Northeast 559 643 36,000  Level FlightAware Transoceanic
08:51PM 18.7990 -56.7919 55° Northeast 559 643 36,000  Level FlightAware Transoceanic
08:51PM 18.8000 -56.7833 55° Northeast 561 646 36,000  Level New York Oceanic (ODAPS)
08:52PM 18.8873 -56.6570 55° Northeast 559 643 36,000  Level FlightAware Transoceanic
08:53PM 18.9755 -56.5219 55° Northeast 559 643 36,000  Level FlightAware Transoceanic
08:54PM 19.0636 -56.3867 55° Northeast 559 643 36,000  Level FlightAware Transoceanic
08:55PM 19.1516 -56.2513 55° Northeast 559 643 36,000  Level FlightAware Transoceanic
08:56PM 19.2395 -56.1158 56° Northeast 559 643 36,000  Level FlightAware Transoceanic
08:57PM 19.3274 -55.9801 56° Northeast 559 643 36,000  Level FlightAware Transoceanic
08:58PM 19.3391 -55.9557 56° Northeast 561 646 36,000  Level FlightAware Transoceanic
08:59PM 19.4286 -55.8172 56° Northeast 561 646 36,000  Level FlightAware Transoceanic
09:00PM 19.5180 -55.6786 56° Northeast 561 646 36,000  Level FlightAware Transoceanic
09:01PM 19.6073 -55.5398 56° Northeast 561 646 36,000  Level FlightAware Transoceanic
09:02PM 19.6965 -55.4009 56° Northeast 561 646 36,000  Level FlightAware Transoceanic
09:03PM 19.7856 -55.2618 56° Northeast 561 646 36,000  Level FlightAware Transoceanic
09:04PM 19.8745 -55.1225 56° Northeast 561 646 36,000  Level FlightAware Transoceanic
09:05PM 19.9634 -54.9831 56° Northeast 561 646 36,000  Level FlightAware Transoceanic
09:06PM 20.0522 -54.8436 56° Northeast 561 646 36,000  Level FlightAware Transoceanic
09:07PM 20.1408 -54.7039 56° Northeast 561 646 36,000  Level FlightAware Transoceanic
09:08PM 20.2293 -54.5640 56° Northeast 561 646 36,000  Level FlightAware Transoceanic
09:09PM 20.3177 -54.4240 56° Northeast 561 646 36,000  Level FlightAware Transoceanic
09:10PM 20.4060 -54.2838 56° Northeast 561 646 36,000  Level FlightAware Transoceanic
09:11PM 20.4942 -54.1434 56° Northeast 561 646 36,000  Level FlightAware Transoceanic
09:12PM 20.5823 -54.0029 56° Northeast 561 646 36,000  Level FlightAware Transoceanic
09:12PM 20.5667 -54.0333 56° Northeast 568 654 36,000  Level New York Oceanic (ODAPS)
09:13PM 20.6703 -53.8622 56° Northeast 561 646 36,000  Level FlightAware Transoceanic
09:14PM 20.7581 -53.7214 56° Northeast 561 646 36,000  Level FlightAware Transoceanic
09:15PM 20.8459 -53.5804 56° Northeast 561 646 36,000  Level FlightAware Transoceanic
09:16PM 20.9335 -53.4392 56° Northeast 561 646 36,000  Level FlightAware Transoceanic
09:17PM 21.0210 -53.2979 56° Northeast 561 646 36,000  Level FlightAware Transoceanic
09:18PM 21.0962 -53.1805 57° Northeast 568 654 36,000  Level FlightAware Transoceanic
09:19PM 21.1841 -53.0377 57° Northeast 568 654 36,000  Level FlightAware Transoceanic
09:20PM 21.2718 -52.8948 57° Northeast 568 654 36,000  Level FlightAware Transoceanic
09:21PM 21.3594 -52.7517 57° Northeast 568 654 36,000  Level FlightAware Transoceanic
09:22PM 21.4469 -52.6085 57° Northeast 568 654 36,000  Level FlightAware Transoceanic
09:23PM 21.5342 -52.4651 57° Northeast 568 654 36,000  Level FlightAware Transoceanic
09:24PM 21.6215 -52.3215 57° Northeast 568 654 36,000  Level FlightAware Transoceanic
09:25PM 21.7086 -52.1777 57° Northeast 568 654 36,000  Level FlightAware Transoceanic
09:26PM 21.7956 -52.0338 57° Northeast 568 654 36,000  Level FlightAware Transoceanic
09:27PM 21.8824 -51.8897 57° Northeast 568 654 36,000  Level FlightAware Transoceanic
09:28PM 21.9692 -51.7454 57° Northeast 568 654 36,000  Level FlightAware Transoceanic
09:29PM 22.0558 -51.6009 57° Northeast 568 654 36,000  Level FlightAware Transoceanic
09:30PM 22.1423 -51.4563 57° Northeast 568 654 36,000  Level FlightAware Transoceanic
09:31PM 22.2286 -51.3115 57° Northeast 568 654 36,000  Level FlightAware Transoceanic
09:32PM 22.3149 -51.1665 57° Northeast 568 654 36,000  Level FlightAware Transoceanic
09:32PM 22.3333 -51.1333 57° Northeast 568 654 36,000  Level New York Oceanic (ODAPS)
09:33PM 22.4010 -51.0213 57° Northeast 568 654 36,000  Level FlightAware Transoceanic
09:34PM 22.4869 -50.8759 57° Northeast 568 654 36,000  Level FlightAware Transoceanic
09:35PM 22.5728 -50.7304 57° Northeast 568 654 36,000  Level FlightAware Transoceanic
09:36PM 22.6585 -50.5847 58° Northeast 568 654 36,000  Level FlightAware Transoceanic
09:37PM 22.7441 -50.4388 58° Northeast 568 654 36,000  Level FlightAware Transoceanic
09:38PM 22.8341 -50.2844 58° Northeast 568 654 36,000  Level FlightAware Transoceanic
09:39PM 22.9171 -50.1423 58° Northeast 568 654 36,000  Level FlightAware Transoceanic
09:40PM 23.0000 -50.0000 48° Northeast 568 654 36,000  Level FlightAware Transoceanic
09:40PM 23.0000 -50.0000 48° Northeast 556 640 36,000  Level New York Oceanic (ODAPS)
09:41PM 23.1020 -49.8788 48° Northeast 568 654 36,000  Level FlightAware Transoceanic
09:42PM 23.2038 -49.7575 48° Northeast 568 654 36,000  Level FlightAware Transoceanic
09:43PM 23.3056 -49.6360 48° Northeast 568 654 36,000  Level FlightAware Transoceanic
09:44PM 23.4073 -49.5143 48° Northeast 568 654 36,000  Level FlightAware Transoceanic
09:45PM 23.5089 -49.3924 48° Northeast 568 654 36,000  Level FlightAware Transoceanic
09:46PM 23.6260 -49.2515 48° Northeast 556 640 36,000  Level FlightAware Transoceanic
09:47PM 23.7299 -49.1260 48° Northeast 556 640 36,000  Level FlightAware Transoceanic
09:48PM 23.8338 -49.0004 48° Northeast 556 640 36,000  Level FlightAware Transoceanic
09:49PM 23.9376 -48.8745 48° Northeast 556 640 36,000  Level FlightAware Transoceanic
09:50PM 24.0413 -48.7485 48° Northeast 556 640 36,000  Level FlightAware Transoceanic
09:51PM 24.1448 -48.6222 48° Northeast 556 640 36,000  Level FlightAware Transoceanic
09:52PM 24.2483 -48.4958 48° Northeast 556 640 36,000 1,140 Level FlightAware Transoceanic
09:52PM 24.3333 -48.3833 48° Northeast 552 635 38,000  Climbing New York Oceanic (ODAPS)
09:53PM 24.3517 -48.3691 48° Northeast 556 640 36,000 -1,560 Descending FlightAware Transoceanic
09:54PM 24.4549 -48.2423 48° Northeast 556 640 36,000  Level FlightAware Transoceanic
09:55PM 24.5581 -48.1152 48° Northeast 556 640 36,000  Level FlightAware Transoceanic
09:56PM 24.6611 -47.9879 48° Northeast 556 640 36,000  Level FlightAware Transoceanic
09:57PM 24.7640 -47.8604 48° Northeast 556 640 36,000  Level FlightAware Transoceanic
09:58PM 24.8669 -47.7327 48° Northeast 556 640 36,000 960 Level FlightAware Transoceanic
09:59PM 25.0321 -47.5206 48° Northeast 552 635 38,000 960 Climbing FlightAware Transoceanic
10:00PM 25.1315 -47.3965 49° Northeast 552 635 38,000  Level FlightAware Transoceanic
10:01PM 25.2308 -47.2723 49° Northeast 552 635 38,000  Level FlightAware Transoceanic
10:02PM 25.3300 -47.1478 49° Northeast 552 635 38,000  Level FlightAware Transoceanic
10:03PM 25.4291 -47.0231 49° Northeast 552 635 38,000  Level FlightAware Transoceanic
10:04PM 25.5281 -46.8983 49° Northeast 552 635 38,000  Level FlightAware Transoceanic
10:05PM 25.6270 -46.7732 49° Northeast 552 635 38,000  Level FlightAware Transoceanic
10:06PM 25.7258 -46.6479 49° Northeast 552 635 38,000  Level FlightAware Transoceanic
10:07PM 25.8245 -46.5224 49° Northeast 552 635 38,000  Level FlightAware Transoceanic
10:08PM 25.9230 -46.3968 49° Northeast 552 635 38,000  Level FlightAware Transoceanic
10:09PM 26.0215 -46.2708 49° Northeast 552 635 38,000  Level FlightAware Transoceanic
10:10PM 26.1199 -46.1447 49° Northeast 552 635 38,000  Level FlightAware Transoceanic
10:11PM 26.2181 -46.0184 49° Northeast 552 635 38,000  Level FlightAware Transoceanic
10:12PM 26.3162 -45.8919 49° Northeast 552 635 38,000  Level FlightAware Transoceanic
10:12PM 26.4000 -45.7833 49° Northeast 540 621 38,000  Level New York Oceanic (ODAPS)
10:13PM 26.4142 -45.7651 49° Northeast 552 635 38,000  Level FlightAware Transoceanic
10:14PM 26.5122 -45.6381 49° Northeast 552 635 38,000  Level FlightAware Transoceanic
10:15PM 26.6100 -45.5109 49° Northeast 552 635 38,000  Level FlightAware Transoceanic
10:16PM 26.7076 -45.3835 49° Northeast 552 635 38,000  Level FlightAware Transoceanic
10:17PM 26.8052 -45.2559 49° Northeast 552 635 38,000  Level FlightAware Transoceanic
10:18PM 26.9027 -45.1281 50° Northeast 552 635 38,000  Level FlightAware Transoceanic
10:19PM 27.0000 -45.0000 55° Northeast 540 621 38,000  Level FlightAware Transoceanic
10:19PM 27.0000 -45.0000 55° Northeast 538 619 38,000  Level New York Oceanic (ODAPS)
10:20PM 27.0882 -44.8610 55° Northeast 540 621 38,000  Level FlightAware Transoceanic
10:21PM 27.1762 -44.7218 55° Northeast 540 621 38,000  Level FlightAware Transoceanic
10:22PM 27.2641 -44.5824 55° Northeast 540 621 38,000  Level FlightAware Transoceanic
10:23PM 27.3519 -44.4427 55° Northeast 540 621 38,000  Level FlightAware Transoceanic
10:24PM 27.4395 -44.3029 55° Northeast 540 621 38,000  Level FlightAware Transoceanic
10:25PM 27.5270 -44.1628 55° Northeast 538 619 38,000  Level FlightAware Transoceanic
10:26PM 27.6144 -44.0225 55° Northeast 538 619 38,000  Level FlightAware Transoceanic
10:27PM 27.7016 -43.8820 55° Northeast 538 619 38,000  Level FlightAware Transoceanic
10:28PM 27.7887 -43.7412 55° Northeast 538 619 38,000  Level FlightAware Transoceanic
10:29PM 27.8756 -43.6002 55° Northeast 538 619 38,000  Level FlightAware Transoceanic
10:30PM 27.9624 -43.4590 55° Northeast 538 619 38,000  Level FlightAware Transoceanic
10:31PM 28.0490 -43.3176 55° Northeast 538 619 38,000  Level FlightAware Transoceanic
10:32PM 28.1355 -43.1759 55° Northeast 538 619 38,000  Level FlightAware Transoceanic
10:33PM 28.2218 -43.0340 55° Northeast 538 619 38,000  Level FlightAware Transoceanic
10:33PM 28.1833 -43.0833 55° Northeast 525 604 38,000  Level New York Oceanic (ODAPS)
10:34PM 28.3080 -42.8919 55° Northeast 538 619 38,000  Level FlightAware Transoceanic
10:35PM 28.3941 -42.7495 56° Northeast 538 619 38,000  Level FlightAware Transoceanic
10:36PM 28.4800 -42.6069 56° Northeast 538 619 38,000  Level FlightAware Transoceanic
10:37PM 28.5657 -42.4641 56° Northeast 538 619 38,000  Level FlightAware Transoceanic
10:38PM 28.6513 -42.3211 56° Northeast 538 619 38,000  Level FlightAware Transoceanic
10:39PM 28.6857 -42.2532 56° Northeast 525 604 38,000  Level FlightAware Transoceanic
10:40PM 28.7690 -42.1140 56° Northeast 525 604 38,000  Level FlightAware Transoceanic
10:41PM 28.8521 -41.9747 56° Northeast 525 604 38,000  Level FlightAware Transoceanic
10:42PM 28.9350 -41.8351 56° Northeast 525 604 38,000  Level FlightAware Transoceanic
10:43PM 29.0178 -41.6953 56° Northeast 525 604 38,000  Level FlightAware Transoceanic
10:44PM 29.1005 -41.5553 56° Northeast 525 604 38,000  Level FlightAware Transoceanic
10:45PM 29.1830 -41.4150 56° Northeast 525 604 38,000  Level FlightAware Transoceanic
10:46PM 29.2654 -41.2746 56° Northeast 525 604 38,000  Level FlightAware Transoceanic
10:47PM 29.3476 -41.1338 56° Northeast 525 604 38,000  Level FlightAware Transoceanic
10:48PM 29.4297 -40.9929 56° Northeast 525 604 38,000  Level FlightAware Transoceanic
10:49PM 29.5116 -40.8518 56° Northeast 525 604 38,000  Level FlightAware Transoceanic
10:50PM 29.5934 -40.7104 56° Northeast 525 604 38,000  Level FlightAware Transoceanic
10:51PM 29.6750 -40.5688 56° Northeast 525 604 38,000  Level FlightAware Transoceanic
10:52PM 29.7565 -40.4269 57° Northeast 525 604 38,000  Level FlightAware Transoceanic
10:53PM 29.8378 -40.2848 57° Northeast 525 604 38,000  Level FlightAware Transoceanic
10:54PM 29.9190 -40.1425 57° Northeast 525 604 38,000  Level FlightAware Transoceanic
10:55PM 30.0000 -40.0000 45° Northeast 525 604 38,000  Level FlightAware Transoceanic
10:56PM 30.0998 -39.8831 45° Northeast 525 604 38,000  Level FlightAware Transoceanic
10:57PM 30.1995 -39.7659 45° Northeast 525 604 38,000  Level FlightAware Transoceanic
10:58PM 30.2991 -39.6485 46° Northeast 525 604 38,000  Level FlightAware Transoceanic
10:59PM 30.3986 -39.5309 46° Northeast 525 604 38,000  Level FlightAware Transoceanic
11:00PM 30.4980 -39.4131 46° Northeast 525 604 38,000  Level FlightAware Transoceanic
11:01PM 30.5973 -39.2949 46° Northeast 525 604 38,000  Level FlightAware Transoceanic
11:02PM 30.6964 -39.1766 46° Northeast 525 604 38,000  Level FlightAware Transoceanic
11:03PM 30.7955 -39.0580 46° Northeast 525 604 38,000  Level FlightAware Transoceanic
11:04PM 30.8945 -38.9392 46° Northeast 525 604 38,000  Level FlightAware Transoceanic
11:05PM 30.9933 -38.8201 46° Northeast 525 604 38,000  Level FlightAware Transoceanic
11:06PM 31.0921 -38.7008 46° Northeast 525 604 38,000  Level FlightAware Transoceanic
11:07PM 31.1907 -38.5812 46° Northeast 525 604 38,000  Level FlightAware Transoceanic
11:08PM 31.2892 -38.4614 46° Northeast 525 604 38,000  Level FlightAware Transoceanic
11:09PM 31.3876 -38.3413 46° Northeast 525 604 38,000  Level FlightAware Transoceanic
11:10PM 31.4859 -38.2210 46° Northeast 525 604 38,000  Level FlightAware Transoceanic
11:11PM 31.5841 -38.1004 46° Northeast 525 604 38,000  Level FlightAware Transoceanic
11:12PM 31.6822 -37.9795 46° Northeast 525 604 38,000  Level FlightAware Transoceanic
11:13PM 31.7801 -37.8584 46° Northeast 525 604 38,000  Level FlightAware Transoceanic
11:14PM 31.8780 -37.7371 47° Northeast 525 604 38,000  Level FlightAware Transoceanic
11:15PM 31.9757 -37.6155 47° Northeast 525 604 38,000  Level FlightAware Transoceanic
11:16PM 32.0733 -37.4936 47° Northeast 525 604 38,000  Level FlightAware Transoceanic
11:17PM 32.1708 -37.3715 47° Northeast 525 604 38,000  Level FlightAware Transoceanic
11:18PM 32.2682 -37.2491 47° Northeast 525 604 38,000  Level FlightAware Transoceanic
11:19PM 32.3654 -37.1265 47° Northeast 525 604 38,000  Level FlightAware Transoceanic
11:20PM 32.4626 -37.0035 47° Northeast 525 604 38,000  Level FlightAware Transoceanic
11:21PM 32.5596 -36.8804 47° Northeast 525 604 38,000  Level FlightAware Transoceanic
11:22PM 32.6565 -36.7569 47° Northeast 525 604 38,000  Level FlightAware Transoceanic
11:23PM 32.7533 -36.6332 47° Northeast 525 604 38,000  Level FlightAware Transoceanic
11:24PM 32.8499 -36.5092 47° Northeast 525 604 38,000  Level FlightAware Transoceanic
11:25PM 32.9464 -36.3850 47° Northeast 525 604 38,000  Level FlightAware Transoceanic
11:26PM 33.0429 -36.2604 47° Northeast 525 604 38,000  Level FlightAware Transoceanic
11:27PM 33.1391 -36.1357 47° Northeast 525 604 38,000  Level FlightAware Transoceanic
11:28PM 33.2353 -36.0106 47° Northeast 525 604 38,000  Level FlightAware Transoceanic
11:29PM 33.3313 -35.8852 48° Northeast 525 604 38,000  Level FlightAware Transoceanic
11:30PM 33.4272 -35.7596 48° Northeast 525 604 38,000  Level FlightAware Transoceanic
11:31PM 33.5230 -35.6337 48° Northeast 525 604 38,000  Level FlightAware Transoceanic
11:32PM 33.6187 -35.5075 48° Northeast 525 604 38,000  Level FlightAware Transoceanic
11:33PM 33.7142 -35.3811 48° Northeast 525 604 38,000  Level FlightAware Transoceanic
11:34PM 33.8096 -35.2543 48° Northeast 525 604 38,000  Level FlightAware Transoceanic
11:35PM 33.9049 -35.1273 48° Northeast 525 604 38,000  Level FlightAware Transoceanic
11:36PM 33.9973 -35.0036 48° Northeast  Level FlightAware Approximate
11:37PM 34.0895 -34.8794 48° Northeast  Level FlightAware Approximate
11:38PM 34.0938 -34.8911 44° Northeast  Level FlightAware Approximate
11:39PM 34.1932 -34.7752 44° Northeast  Level FlightAware Approximate
11:40PM 34.2925 -34.6590 44° Northeast  Level FlightAware Approximate
11:41PM 34.3917 -34.5426 44° Northeast  Level FlightAware Approximate
11:42PM 34.4908 -34.4259 44° Northeast  Level FlightAware Approximate
11:43PM 34.5898 -34.3089 44° Northeast  Level FlightAware Approximate
11:44PM 34.6887 -34.1917 44° Northeast  Level FlightAware Approximate
11:45PM 34.7874 -34.0741 44° Northeast  Level FlightAware Approximate
11:46PM 34.8861 -33.9563 44° Northeast  Level FlightAware Approximate
11:47PM 34.9846 -33.8382 44° Northeast  Level FlightAware Approximate
11:48PM 35.0830 -33.7198 45° Northeast  Level FlightAware Approximate
11:49PM 35.1814 -33.6011 45° Northeast  Level FlightAware Approximate
11:50PM 35.2795 -33.4822 45° Northeast  Level FlightAware Approximate
11:51PM 35.3776 -33.3629 45° Northeast  Level FlightAware Approximate
11:52PM 35.4756 -33.2434 45° Northeast  Level FlightAware Approximate
11:53PM 35.5734 -33.1236 45° Northeast  Level FlightAware Approximate
11:54PM 35.6711 -33.0034 45° Northeast  Level FlightAware Approximate
11:55PM 35.7687 -32.8830 45° Northeast  Level FlightAware Approximate
11:56PM 35.8662 -32.7623 45° Northeast  Level FlightAware Approximate
11:57PM 35.9635 -32.6413 45° Northeast  Level FlightAware Approximate
11:58PM 36.0608 -32.5200 45° Northeast  Level FlightAware Approximate
11:59PM 36.1579 -32.3984 45° Northeast  Level FlightAware Approximate
12:00AM 36.2549 -32.2765 45° Northeast  Level FlightAware Approximate
12:01AM 36.3517 -32.1542 45° Northeast  Level FlightAware Approximate
12:01AM 36.4670 -31.9490 46° Northeast 494 568 38,000  Level FlightAware
12:02AM 36.4485 -32.0317 46° Northeast  Level FlightAware Approximate
12:02AM 36.5380 -31.8580 46° Northeast 495 570 38,000  Level FlightAware
12:03AM 36.6800 -31.6780 45° Northeast 495 570 38,000  Level FlightAware
12:04AM 36.7770 -31.5530 46° Northeast 493 567 38,000  Level FlightAware
12:04AM 36.8410 -31.4700 46° Northeast 492 566 38,000  Level FlightAware
12:05AM 36.8960 -31.3990 46° Northeast 492 566 38,000  Level FlightAware
12:06AM 36.9660 -31.3080 46° Northeast 492 566 38,000  Level FlightAware
12:07AM 37.0480 -31.2020 46° Northeast 495 570 38,000  Level FlightAware
12:07AM 37.0980 -31.1370 46° Northeast 495 570 38,000  Level FlightAware
12:08AM 37.1690 -31.0440 46° Northeast 497 572 38,000  Level FlightAware
12:09AM 37.2360 -30.9570 46° Northeast 497 572 38,000  Level FlightAware
12:09AM 37.2920 -30.8820 47° Northeast 497 572 38,000  Level FlightAware
12:10AM 37.3570 -30.7980 46° Northeast 497 572 38,000  Level FlightAware
12:11AM 37.4380 -30.6900 47° Northeast 495 570 38,000  Level FlightAware
12:12AM 37.5210 -30.5800 46° Northeast 494 568 38,000  Level FlightAware
12:12AM 37.5830 -30.4990 46° Northeast 495 570 38,000  Level FlightAware
12:13AM 37.6340 -30.4320 46° Northeast 495 570 38,000  Level FlightAware
12:14AM 37.7190 -30.3170 47° Northeast 495 570 38,000  Level FlightAware
12:15AM 37.7890 -30.2230 47° Northeast 494 568 38,000  Level FlightAware
12:15AM 37.8570 -30.1330 46° Northeast 493 567 38,000  Level FlightAware
12:16AM 37.9620 -29.9910 47° Northeast 493 567 38,000  Level FlightAware
12:17AM 38.0300 -29.8770 53° Northeast 492 566 38,000  Level FlightAware
12:18AM 38.0860 -29.7810 53° Northeast 492 566 38,000  Level FlightAware
12:18AM 38.1380 -29.6910 54° Northeast 489 563 38,000  Level FlightAware
12:19AM 38.1970 -29.5890 54° Northeast 487 560 38,000  Level FlightAware
12:20AM 38.2530 -29.4910 54° Northeast 484 557 38,000 120 Level FlightAware
12:21AM 38.3110 -29.3910 54° Northeast 486 559 38,200 600 Climbing FlightAware
12:21AM 38.3600 -29.3050 54° Northeast 483 556 38,900 600 Climbing FlightAware
12:22AM 38.4160 -29.2070 54° Northeast 488 562 39,000 60 Climbing FlightAware
12:23AM 38.4780 -29.0980 54° Northeast 491 565 39,000  Level FlightAware
12:23AM 38.5270 -29.0110 54° Northeast 490 564 39,000  Level FlightAware
12:24AM 38.5840 -28.9100 54° Northeast 490 564 39,000  Level FlightAware
12:25AM 38.6430 -28.8050 54° Northeast 490 564 39,000  Level FlightAware
12:25AM 38.6950 -28.7130 54° Northeast 490 564 39,000  Level FlightAware
12:26AM 38.7550 -28.6050 55° Northeast 488 562 39,000  Level FlightAware
12:27AM 38.8070 -28.5130 54° Northeast 486 559 39,000  Level FlightAware
12:28AM 38.8540 -28.4290 54° Northeast 483 556 39,000  Level FlightAware
12:28AM 38.9000 -28.3450 55° Northeast 482 555 39,000  Level FlightAware
12:29AM 38.9660 -28.2260 54° Northeast 482 555 39,000  Level FlightAware
12:30AM 39.0440 -28.0850 55° Northeast 482 555 39,000  Level FlightAware
12:31AM 39.0940 -27.9950 54° Northeast 482 555 39,000  Level FlightAware
12:31AM 39.1530 -27.8860 55° Northeast 479 551 39,000  Level FlightAware
12:32AM 39.2000 -27.7990 55° Northeast 478 550 39,000  Level FlightAware
12:33AM 39.2460 -27.7160 54° Northeast 477 549 39,000  Level FlightAware
12:34AM 39.3200 -27.5800 55° Northeast 476 548 39,000  Level FlightAware
12:34AM 39.3710 -27.4840 55° Northeast 477 549 39,000  Level FlightAware
12:35AM 39.4210 -27.3930 55° Northeast 478 550 39,000  Level FlightAware
12:36AM 39.4690 -27.3020 56° Northeast 477 549 39,000  Level FlightAware
12:36AM 39.5230 -27.2020 55° Northeast 476 548 39,000  Level FlightAware
12:37AM 39.6000 -27.0570 55° Northeast 476 548 39,000  Level FlightAware
12:38AM 39.6410 -26.9810 55° Northeast 476 548 39,000  Level FlightAware
12:39AM 39.7200 -26.8310 56° Northeast 477 549 39,000  Level FlightAware
12:40AM 39.7760 -26.7260 55° Northeast 479 551 39,000  Level FlightAware
12:40AM 39.8220 -26.6390 55° Northeast 479 551 39,000  Level FlightAware
12:41AM 39.8950 -26.5000 56° Northeast 479 551 39,000  Level FlightAware
12:42AM 39.9600 -26.3760 56° Northeast 476 548 39,000  Level FlightAware
12:43AM 39.9930 -26.3120 56° Northeast 475 547 39,000  Level FlightAware
12:43AM 40.0380 -26.2250 56° Northeast 474 545 39,000  Level FlightAware
12:44AM 40.0970 -26.1100 56° Northeast 473 544 39,000  Level FlightAware
12:45AM 40.1550 -25.9990 56° Northeast 471 542 39,000  Level FlightAware
12:46AM 40.2200 -25.8740 56° Northeast 471 542 39,000  Level FlightAware
12:47AM 40.2880 -25.7400 56° Northeast 471 542 39,000  Level FlightAware
12:47AM 40.3440 -25.6300 56° Northeast 472 543 39,000  Level FlightAware
12:48AM 40.3890 -25.5400 57° Northeast 472 543 39,000  Level FlightAware
12:49AM 40.4420 -25.4370 56° Northeast 473 544 39,000  Level FlightAware
12:49AM 40.4860 -25.3490 57° Northeast 474 545 39,000  Level FlightAware
12:50AM 40.5430 -25.2370 56° Northeast 474 545 39,000  Level FlightAware
12:51AM 40.5950 -25.1330 57° Northeast 475 547 39,000  Level FlightAware
12:52AM 40.6550 -25.0140 56° Northeast 473 544 39,000  Level FlightAware
12:52AM 40.7110 -24.9010 57° Northeast 474 545 39,000  Level FlightAware
12:53AM 40.7620 -24.7990 57° Northeast 472 543 39,000  Level FlightAware
12:54AM 40.8230 -24.6780 56° Northeast 472 543 39,000  Level FlightAware
12:55AM 40.9060 -24.5060 57° Northeast 469 540 39,000  Level FlightAware
12:56AM 40.9590 -24.3980 57° Northeast 469 540 39,000  Level FlightAware
12:57AM 41.0060 -24.3020 57° Northeast 469 540 39,000  Level FlightAware
12:57AM 41.0510 -24.2100 57° Northeast 467 537 39,000  Level FlightAware
12:58AM 41.0970 -24.1150 57° Northeast 466 536 39,000  Level FlightAware
12:59AM 41.1500 -24.0060 57° Northeast 466 536 39,000  Level FlightAware
01:00AM 41.2080 -23.8830 58° Northeast 39,000  Level FlightAware
01:00AM 41.2530 -23.7910 57° Northeast 468 539 39,000  Level FlightAware
01:01AM 41.3070 -23.6790 57° Northeast 468 539 39,000  Level FlightAware
01:02AM 41.3540 -23.5820 57° Northeast 468 539 39,000  Level FlightAware
01:02AM 41.3970 -23.4910 58° Northeast 470 541 39,000  Level FlightAware
01:03AM 41.4590 -23.3580 58° Northeast 471 542 39,000  Level FlightAware
01:04AM 41.5050 -23.2620 57° Northeast 471 542 39,000  Level FlightAware
01:05AM 41.5530 -23.1620 57° Northeast 471 542 39,000  Level FlightAware
01:05AM 41.5930 -23.0790 57° Northeast 471 542 39,000  Level FlightAware
01:07AM 41.6820 -22.8830 59° Northeast 470 541 39,000  Level FlightAware
01:07AM 41.7210 -22.7990 58° Northeast 470 541 39,000  Level FlightAware
01:08AM 41.7680 -22.6990 58° Northeast 468 539 39,000  Level FlightAware
01:09AM 41.8160 -22.5940 58° Northeast 468 539 39,000  Level FlightAware
01:09AM 41.8670 -22.4840 58° Northeast 39,000  Level FlightAware
01:12AM 42.0312 -22.1365 57° Northeast  Level FlightAware Approximate
01:13AM 42.1050 -21.9792 58° Northeast  Level FlightAware Approximate
01:14AM 42.1785 -21.8214 58° Northeast  Level FlightAware Approximate
01:15AM 42.2518 -21.6633 58° Northeast  Level FlightAware Approximate
01:16AM 42.3249 -21.5049 58° Northeast  Level FlightAware Approximate
01:17AM 42.3978 -21.3461 58° Northeast  Level FlightAware Approximate
01:18AM 42.4705 -21.1869 58° Northeast  Level FlightAware Approximate
01:19AM 42.5429 -21.0273 58° Northeast  Level FlightAware Approximate
01:20AM 42.6151 -20.8674 58° Northeast  Level FlightAware Approximate
01:21AM 42.6871 -20.7071 59° Northeast  Level FlightAware Approximate
01:22AM 42.7589 -20.5464 59° Northeast  Level FlightAware Approximate
01:23AM 42.8304 -20.3854 59° Northeast  Level FlightAware Approximate
01:24AM 42.9017 -20.2239 59° Northeast  Level FlightAware Approximate
01:25AM 42.9728 -20.0622 59° Northeast  Level FlightAware Approximate
01:26AM 43.0342 -19.8944 66° East  Level FlightAware Approximate
01:27AM 43.0901 -19.7215 66° East  Level FlightAware Approximate
01:28AM 43.1456 -19.5482 66° East  Level FlightAware Approximate
01:29AM 43.2009 -19.3746 66° East  Level FlightAware Approximate
01:30AM 43.2560 -19.2007 66° East  Level FlightAware Approximate
01:31AM 43.3107 -19.0265 67° East  Level FlightAware Approximate
01:32AM 43.3652 -18.8520 67° East  Level FlightAware Approximate
01:33AM 43.4195 -18.6772 67° East  Level FlightAware Approximate
01:34AM 43.4734 -18.5020 67° East  Level FlightAware Approximate
01:35AM 43.5271 -18.3266 67° East  Level FlightAware Approximate
01:36AM 43.5806 -18.1508 67° East  Level FlightAware Approximate
01:37AM 43.6338 -17.9747 67° East  Level FlightAware Approximate
01:38AM 43.6866 -17.7983 67° East  Level FlightAware Approximate
01:39AM 43.7393 -17.6216 68° East  Level FlightAware Approximate
01:40AM 43.7916 -17.4446 68° East  Level FlightAware Approximate
01:41AM 43.8437 -17.2672 68° East  Level FlightAware Approximate
01:42AM 43.8955 -17.0896 68° East  Level FlightAware Approximate
01:43AM 43.9478 -16.9121 68° East  Level FlightAware Approximate
01:44AM 44.0003 -16.7345 68° East  Level FlightAware Approximate
01:45AM 44.0525 -16.5567 68° East  Level FlightAware Approximate
01:46AM 44.1044 -16.3785 68° East  Level FlightAware Approximate
01:47AM 44.1561 -16.2000 68° East  Level FlightAware Approximate
01:48AM 44.2075 -16.0212 68° East  Level FlightAware Approximate
01:49AM 44.2586 -15.8420 68° East  Level FlightAware Approximate
01:50AM 44.3094 -15.6626 68° East  Level FlightAware Approximate
01:51AM 44.3599 -15.4829 68° East  Level FlightAware Approximate
01:52AM 44.4102 -15.3028 69° East  Level FlightAware Approximate
01:53AM 44.4602 -15.1225 69° East  Level FlightAware Approximate
01:54AM 44.5099 -14.9418 69° East  Level FlightAware Approximate
01:55AM 44.5593 -14.7608 69° East  Level FlightAware Approximate
01:56AM 44.6084 -14.5795 69° East  Level FlightAware Approximate
01:57AM 44.6572 -14.3980 69° East  Level FlightAware Approximate
01:58AM 44.7058 -14.2161 69° East  Level FlightAware Approximate
01:59AM 44.7540 -14.0339 69° East  Level FlightAware Approximate
02:00AM 44.8020 -13.8514 70° East  Level FlightAware Approximate
02:01AM 44.8497 -13.6686 70° East  Level FlightAware Approximate
02:02AM 44.8971 -13.4854 70° East  Level FlightAware Approximate
02:03AM 44.9442 -13.3020 70° East  Level FlightAware Approximate
02:04AM 44.9910 -13.1183 70° East  Level FlightAware Approximate
02:05AM 45.0375 -12.9343 70° East  Level FlightAware Approximate
02:06AM 45.0837 -12.7500 70° East  Level FlightAware Approximate
02:07AM 45.1296 -12.5654 71° East  Level FlightAware Approximate
02:08AM 45.1752 -12.3805 71° East  Level FlightAware Approximate
02:09AM 45.2205 -12.1953 71° East  Level FlightAware Approximate
02:10AM 45.2655 -12.0098 71° East  Level FlightAware Approximate
02:11AM 45.3102 -11.8240 71° East  Level FlightAware Approximate
02:12AM 45.3542 -11.6378 71° East  Level FlightAware Approximate
02:12AM 45.1140 -12.4150 71° East 454 522 40,000  Level FlightAware
02:13AM 45.3980 -11.4513 71° East  Level FlightAware Approximate
02:13AM 45.1740 -12.1750 70° East 450 518 40,000  Level FlightAware
02:14AM 45.2020 -12.0640 70° East 449 517 40,000  Level FlightAware
02:16AM 45.2680 -11.7950 71° East 447 514 40,000  Level FlightAware
02:16AM 45.2970 -11.6770 71° East 448 516 40,000  Level FlightAware
02:17AM 45.3260 -11.5560 71° East 450 518 40,000  Level FlightAware
02:18AM 45.3470 -11.4710 71° East 452 520 40,000  Level FlightAware
02:18AM 45.3810 -11.3300 71° East 454 522 40,000  Level FlightAware
02:19AM 45.4130 -11.1960 71° East 454 522 40,000  Level FlightAware
02:20AM 45.4490 -11.0430 71° East 453 521 40,000  Level FlightAware
02:21AM 45.4750 -10.9350 71° East 453 521 40,000  Level FlightAware
02:21AM 45.5050 -10.8050 72° East 455 524 40,000  Level FlightAware
02:22AM 45.5280 -10.7080 71° East 456 525 40,000  Level FlightAware
02:24AM 45.5890 -10.4460 72° East 459 528 40,000  Level FlightAware
02:24AM 45.6150 -10.3350 71° East 460 529 40,000  Level FlightAware
02:26AM 45.6660 -10.1100 72° East 462 532 40,000  Level FlightAware
02:26AM 45.6980 -9.9700 72° East 461 531 40,000  Level FlightAware
02:28AM 45.7620 -9.6820 72° East 459 528 40,000  Level FlightAware
02:29AM 45.7860 -9.5770 72° East 459 528 40,000  Level FlightAware
02:29AM 45.8080 -9.4790 72° East 459 528 40,000  Level FlightAware
02:30AM 45.8360 -9.3560 72° East 459 528 40,000  Level FlightAware
02:31AM 45.8580 -9.2570 72° East 459 528 40,000  Level FlightAware
02:31AM 45.8810 -9.1580 72° East 459 528 40,000  Level FlightAware
02:32AM 45.9030 -9.0600 72° East 459 528 40,000  Level FlightAware
02:33AM 45.9310 -8.9360 72° East 459 528 40,000  Level FlightAware
02:34AM 45.9530 -8.8380 72° East 459 528 40,000  Level FlightAware
02:34AM 45.7700 -9.6460 252° West 40,000  Level FlightAware
02:36AM 46.0740 -8.2880 66° East 450 518 40,000  Level FlightAware
02:37AM 45.8999 -9.2298 66° East  Level Estimated
02:37AM 46.0920 -8.2150 70° East 450 518 40,000  Level FlightAware
02:38AM 46.1200 -8.0940 71° East 450 518 40,000  Level FlightAware
02:38AM 46.1430 -7.9980 71° East 450 518 40,000  Level FlightAware
02:39AM 46.1720 -7.8770 71° East 450 518 40,000  Level FlightAware
02:40AM 46.1950 -7.7800 71° East 450 518 40,000  Level FlightAware
02:40AM 46.2180 -7.6840 71° East 450 518 40,000  Level FlightAware
02:41AM 46.2410 -7.5870 71° East 450 518 40,000  Level FlightAware
02:42AM 46.2640 -7.4900 71° East 450 518 40,000  Level FlightAware
02:42AM 46.2870 -7.3930 71° East 450 518 40,000  Level FlightAware
02:43AM 46.3160 -7.2720 71° East 450 518 40,000  Level FlightAware
02:44AM 46.3390 -7.1750 71° East 450 518 40,000  Level FlightAware
02:45AM 46.3620 -7.0780 71° East 450 518 40,000  Level FlightAware
02:45AM 46.3850 -6.9810 71° East 450 518 40,000  Level FlightAware
02:48AM 46.4399 -6.5271 80° East  Level FlightAware Approximate
02:49AM 46.4633 -6.3295 80° East  Level FlightAware Approximate
02:49AM 46.5660 -6.0870 80° East 468 539 40,000  Level FlightAware
02:49AM 46.5920 -5.9670 72° East 468 539 40,000  Level FlightAware
02:50AM 46.6190 -5.8340 73° East 466 536 40,000  Level FlightAware
02:52AM 46.6340 -5.7630 73° East 463 533 40,000  Level FlightAware
02:52AM 46.6550 -5.6610 73° East 463 533 40,000  Level FlightAware
02:53AM 46.7260 -5.3180 73° East 40,000  Level FlightAware
02:54AM 46.7480 -5.2070 74° East 465 535 40,000  Level FlightAware
02:55AM 46.7850 -5.0270 73° East 466 536 40,000  Level FlightAware
02:55AM 46.6190 -5.8340 254° West 40,000  Level FlightAware
02:56AM 46.7990 -4.9560 73° East 467 537 40,000  Level FlightAware
02:56AM 46.8190 -4.8620 73° East 467 537 40,000  Level FlightAware
02:58AM 46.8930 -4.4830 74° East 471 542 40,000  Level FlightAware
02:58AM 46.9160 -4.3620 74° East 468 539 40,000  Level FlightAware
02:59AM 46.9480 -4.2000 74° East 468 539 40,000  Level FlightAware
03:00AM 46.9610 -4.1340 74° East 468 539 40,000  Level FlightAware
03:01AM 47.0060 -3.8960 74° East 466 536 40,000  Level FlightAware
03:02AM 47.0340 -3.7470 75° East 466 536 40,000  Level FlightAware
03:02AM 47.0560 -3.6290 75° East 467 537 40,000  Level FlightAware
03:03AM 47.0820 -3.4910 74° East 467 537 40,000  Level FlightAware
03:04AM 47.0960 -3.3880 79° East 463 533 40,000  Level FlightAware
03:04AM 47.1180 -3.2000 80° East 462 532 40,000  Level FlightAware
03:05AM 47.1280 -3.1140 80° East 462 532 40,000  Level FlightAware
03:06AM 47.1470 -2.9500 80° East 461 531 40,000  Level FlightAware
03:07AM 47.1610 -2.8180 81° East 461 531 40,000  Level FlightAware
03:07AM 47.1750 -2.6950 80° East 460 529 40,000  Level FlightAware
03:08AM 47.1890 -2.5730 80° East 459 528 40,000  Level FlightAware
03:09AM 47.2040 -2.4300 81° East 459 528 40,000  Level FlightAware
03:09AM 47.2170 -2.3100 81° East 459 528 40,000  Level FlightAware
03:10AM 47.2320 -2.1740 81° East 459 528 40,000  Level FlightAware
03:11AM 47.2450 -2.0510 81° East 459 528 40,000  Level FlightAware
03:11AM 47.2580 -1.9300 81° East 458 527 40,000 -300 Level FlightAware
03:12AM 47.2730 -1.7830 81° East 458 527 39,600 -780 Descending FlightAware
03:13AM 47.2870 -1.6490 81° East 453 521 38,900 -1,020 Descending FlightAware
03:14AM 47.2990 -1.5270 82° East 453 521 38,200 -1,080 Descending FlightAware
03:14AM 47.3110 -1.4070 82° East 454 522 37,500 -1,020 Descending FlightAware
03:15AM 47.3240 -1.2710 82° East 458 527 36,800 -960 Descending FlightAware
03:16AM 47.3370 -1.1430 81° East 459 528 36,200 -1,020 Descending FlightAware
03:16AM 47.3490 -1.0220 82° East 459 528 35,500 -1,020 Descending FlightAware
03:17AM 47.3630 -0.8810 82° East 462 532 34,800 -1,020 Descending FlightAware
03:18AM 47.3930 -0.7600 70° East 475 547 34,100 -1,020 Descending FlightAware
03:18AM 47.4350 -0.6470 61° Northeast 478 550 33,500 -1,020 Descending FlightAware
03:19AM 47.4790 -0.5320 60° Northeast 483 556 32,800 -1,020 Descending FlightAware
03:20AM 47.5260 -0.4080 61° Northeast 489 563 32,100 -1,020 Descending FlightAware
03:21AM 47.5770 -0.2710 61° Northeast 490 564 31,300 -1,080 Descending FlightAware
03:21AM 47.6210 -0.1530 61° Northeast 488 562 30,600 -1,560 Descending FlightAware
03:22AM 47.6680 -0.0260 61° Northeast 476 548 29,100 -2,160 Descending FlightAware
03:23AM 47.7100 0.0870 61° Northeast 466 536 27,600 -2,220 Descending FlightAware
03:23AM 47.7510 0.1990 61° Northeast 458 527 26,200 -2,160 Descending FlightAware
03:24AM 47.7960 0.3230 62° Northeast 448 516 24,600 -2,640 Descending FlightAware
03:25AM 47.8250 0.4030 62° Northeast 441 507 22,900 -2,760 Descending FlightAware
03:25AM 47.8770 0.5460 61° Northeast 415 478 20,700 -2,100 Descending FlightAware
03:26AM 47.9130 0.6430 61° Northeast 407 468 19,600 -1,920 Descending FlightAware
03:27AM 47.9490 0.7440 62° Northeast 401 461 18,200 -1,800 Descending FlightAware
03:28AM 47.9850 0.8460 62° Northeast 393 452 17,100 -1,680 Descending FlightAware
03:28AM 48.0200 0.9420 61° Northeast 384 442 15,900 -1,800 Descending FlightAware
03:29AM 48.0530 1.0340 62° Northeast 380 437 14,700 -1,800 Descending FlightAware
03:30AM 48.0890 1.1380 63° Northeast 375 432 13,400 -1,800 Descending FlightAware
03:30AM 48.1220 1.2310 62° Northeast 369 425 12,200 -1,680 Descending FlightAware
03:31AM 48.1570 1.3300 62° Northeast 357 411 11,100 -1,200 Descending FlightAware
03:32AM 48.1870 1.4160 62° Northeast 335 386 10,500 -720 Descending FlightAware
03:32AM 48.2190 1.5060 62° Northeast 305 351 10,100 -540 Descending FlightAware
03:33AM 48.2340 1.5500 63° Northeast 291 335 9,900 -600 Descending FlightAware
03:33AM 48.2450 1.5740 55° Northeast 289 333 9,700 -1,020 Descending FlightAware
03:33AM 48.2600 1.5920 39° Northeast 285 328 9,400 -1,080 Descending FlightAware
03:34AM 48.2930 1.6240 33° Northeast 282 325 8,900 -1,080 Descending FlightAware
03:34AM 48.3050 1.6360 34° Northeast 280 322 8,700 -1,080 Descending FlightAware
03:35AM 48.3370 1.6680 34° Northeast 271 312 8,200 -1,140 Descending FlightAware
03:35AM 48.3630 1.6950 35° Northeast 272 313 7,700 -1,380 Descending FlightAware
03:35AM 48.3780 1.7100 34° Northeast 273 314 7,300 -1,200 Descending FlightAware
03:36AM 48.4100 1.7430 34° Northeast 268 308 6,800 -1,020 Descending FlightAware
03:36AM 48.4390 1.7730 34° Northeast 267 307 6,300 -1,020 Descending FlightAware
03:37AM 48.4650 1.8000 35° Northeast 260 299 5,900 -1,020 Descending FlightAware
03:37AM 48.4940 1.8300 34° Northeast 252 290 5,400 -1,020 Descending FlightAware
03:38AM 48.5180 1.8540 34° Northeast 250 288 5,000 -600 Descending FlightAware
03:38AM 48.5440 1.8810 35° Northeast 226 260 4,900 -240 Descending FlightAware
03:38AM 48.5651 1.9013 32° Northeast 220 253 4,800 -240 Descending FlightAware ADS-B
03:38AM 48.5700 1.9071 38° Northeast 215 247 4,800  Level FlightAware ADS-B
03:39AM 48.5756 1.9166 48° Northeast 215 247 4,800  Level FlightAware ADS-B
03:39AM 48.5780 1.9217 55° Northeast 215 247 4,800  Level FlightAware ADS-B
03:39AM 48.5904 1.9537 60° Northeast 216 249 4,800 -960 Level FlightAware ADS-B
03:40AM 48.6024 1.9874 62° Northeast 202 232 4,000 -1,020 Descending FlightAware ADS-B
03:40AM 48.6155 2.0234 61° Northeast 209 241 3,900 -240 Descending FlightAware ADS-B
03:41AM 48.6284 2.0595 62° Northeast 187 215 3,800 -240 Descending FlightAware ADS-B
03:41AM 48.6376 2.0852 61° Northeast 170 196 3,700 -600 Descending FlightAware ADS-B
03:41AM 48.6440 2.1033 62° Northeast 170 196 3,400 -1,080 Descending FlightAware ADS-B
03:41AM 48.6502 2.1206 62° Northeast 169 194 3,100 -960 Descending FlightAware ADS-B
03:42AM 48.6557 2.1358 61° Northeast 164 189 2,900 -900 Descending FlightAware ADS-B
03:42AM 48.6619 2.1537 62° Northeast 154 177 2,600 -960 Descending FlightAware ADS-B
03:42AM 48.6660 2.1653 62° Northeast 138 159 2,400 -900 Descending FlightAware ADS-B
03:43AM 48.6703 2.1771 61° Northeast 129 148 2,200 -660 Descending FlightAware ADS-B
03:43AM 48.6745 2.1892 62° Northeast 125 144 2,100 -600 Descending FlightAware ADS-B
03:43AM 48.6792 2.2025 62° Northeast 127 146 1,900 -720 Descending FlightAware ADS-B
03:43AM 48.6837 2.2150 61° Northeast 128 147 1,700 -840 Descending FlightAware ADS-B
03:44AM 48.6874 2.2251 61° Northeast 128 147 1,500 -840 Descending FlightAware ADS-B
03:44AM 48.6903 2.2334 62° Northeast 129 148 1,400 -840 Descending FlightAware ADS-B
03:44AM 48.6941 2.2438 61° Northeast 129 148 1,200 -720 Descending FlightAware ADS-B
03:44AM 48.6974 2.2532 62° Northeast 129 148 1,100 -600 Descending FlightAware ADS-B
03:44AM 48.7032 2.2698 62° Northeast 131 151 900 -360 Descending FlightAware ADS-B
03:45AM 48.7130 2.2970 61° Northeast 129 148 800 -180 Descending FlightAware
03:48AM 48.7167 2.3667 63° Northeast  Level FlightAware Approximate
03:49AM 48.7253 2.3594 63° Northeast  Level Estimated
03:50AM 48.7253 2.3594 63° Northeast  Level Estimated
03:51AM 48.7253 2.3594 63° Northeast  Level Estimated
03:52AM 48.7253 2.3594 63° Northeast  Level Estimated
03:53AM 48.7253 2.3594 63° Northeast  Level Estimated
03:54AM 48.7253 2.3594 63° Northeast  Level Estimated
03:55AM 48.7253 2.3594 63° Northeast  Level Estimated